Time;durP1;ratioP1;P1;durP2;ratioP2;P2;SDS_P1;SDS_P2;PMS_P1;PMS_P2;Temp;Humidity;BMP_temperature;BMP_pressure;BME280_temperature;BME280_humidity;BME280_pressure;Samples;Min_cycle;Max_cycle;Signal;HPM_P1;HPM_P2
2022/04/16 00:01:47;;;;;;;13.38;9.82;;;9.10;99.90;;;;;;5057168;28;20452;-71
2022/04/16 00:04:13;;;;;;;14.82;9.32;;;9.00;99.90;;;;;;5040218;28;20414;-71
2022/04/16 00:06:38;;;;;;;14.20;9.82;;;9.10;99.90;;;;;;5057041;28;20116;-71
2022/04/16 00:09:05;;;;;;;15.65;10.52;;;9.00;99.90;;;;;;5074087;28;20040;-71
2022/04/16 00:11:30;;;;;;;16.58;9.57;;;9.00;99.90;;;;;;5074509;28;20041;-71
2022/04/16 00:13:56;;;;;;;13.88;9.18;;;;;;;;;;5057119;28;20498;-73
2022/04/16 00:16:22;;;;;;;19.25;12.82;;;;;;;;;;5040233;28;20135;-71
2022/04/16 00:18:48;;;;;;;19.05;12.60;;;8.90;99.90;;;;;;5056515;28;20036;-71
2022/04/16 00:21:14;;;;;;;21.48;15.30;;;;;;;;;;5073859;28;20101;-71
2022/04/16 00:23:43;;;;;;;23.02;15.73;;;8.80;99.90;;;;;;5056453;28;20040;-71
2022/04/16 00:26:11;;;;;;;26.92;17.13;;;;;;;;;;5056326;28;20482;-71
2022/04/16 00:28:37;;;;;;;24.40;16.30;;;;;;;;;;5039905;28;20044;-72
2022/04/16 00:31:03;;;;;;;25.33;17.38;;;;;;;;;;5073468;28;20032;-71
2022/04/16 00:33:30;;;;;;;26.33;18.10;;;;;;;;;;5055420;28;20146;-72
2022/04/16 00:35:55;;;;;;;24.73;17.58;;;8.60;99.90;;;;;;5056472;28;20416;-71
2022/04/16 00:38:21;;;;;;;28.88;21.38;;;;;;;;;;5056445;28;20041;-72
2022/04/16 00:40:47;;;;;;;27.58;19.92;;;8.70;99.90;;;;;;5055367;28;20052;-71
2022/04/16 00:43:27;;;;;;;22.05;15.80;;;8.80;99.90;;;;;;5056108;28;20048;-71
2022/04/16 00:45:56;;;;;;;25.30;14.98;;;8.60;99.90;;;;;;5056074;28;20417;-71
2022/04/16 00:48:23;;;;;;;20.23;13.57;;;8.90;99.90;;;;;;5056254;28;20426;-73
2022/04/16 00:50:54;;;;;;;17.73;11.15;;;8.80;99.90;;;;;;5055034;28;20083;-71
2022/04/16 00:53:21;;;;;;;20.35;11.35;;;;;;;;;;5074187;28;20406;-73
2022/04/16 00:55:47;;;;;;;14.50;10.35;;;8.80;99.90;;;;;;5056235;28;20132;-71
2022/04/16 00:58:13;;;;;;;20.85;11.15;;;9.00;99.90;;;;;;5073855;28;20040;-71
2022/04/16 01:00:39;;;;;;;22.42;12.48;;;;;;;;;;5073123;28;20094;-72
2022/04/16 01:03:05;;;;;;;16.70;11.90;;;8.80;99.90;;;;;;5055694;28;20044;-72
2022/04/16 01:05:31;;;;;;;18.65;12.68;;;9.10;99.90;;;;;;5073613;28;20111;-71
2022/04/16 01:07:58;;;;;;;19.88;13.18;;;9.00;99.90;;;;;;5039106;28;20144;-72
2022/04/16 01:10:29;;;;;;;19.35;12.40;;;9.00;99.90;;;;;;5055717;28;20029;-71
2022/04/16 01:13:03;;;;;;;18.48;12.18;;;9.00;99.90;;;;;;5073710;28;20036;-71
2022/04/16 01:15:29;;;;;;;20.45;12.95;;;9.10;99.90;;;;;;5039423;28;20436;-71
2022/04/16 01:17:56;;;;;;;18.33;11.85;;;8.90;99.90;;;;;;5038991;28;20063;-71
2022/04/16 01:20:22;;;;;;;18.15;11.68;;;;;;;;;;5054860;28;20113;-72
2022/04/16 01:22:51;;;;;;;17.90;12.85;;;8.90;99.90;;;;;;5073288;28;20512;-71
2022/04/16 01:25:18;;;;;;;22.92;12.32;;;8.90;99.90;;;;;;5055555;28;20043;-71
2022/04/16 01:27:45;;;;;;;19.67;13.55;;;;;;;;;;5073452;28;20108;-72
2022/04/16 01:30:12;;;;;;;20.33;12.60;;;;;;;;;;5072451;28;20037;-71
2022/04/16 01:32:38;;;;;;;18.92;12.18;;;8.80;99.90;;;;;;5055617;28;20048;-71
2022/04/16 01:35:06;;;;;;;20.10;12.75;;;8.80;99.90;;;;;;5073386;28;20073;-71
2022/04/16 01:37:37;;;;;;;18.60;13.32;;;8.80;99.90;;;;;;5055243;28;20417;-71
2022/04/16 01:40:05;;;;;;;19.95;13.95;;;8.80;99.90;;;;;;5072408;28;20078;-71
2022/04/16 01:42:32;;;;;;;22.13;14.02;;;;;;;;;;5073533;28;20494;-71
2022/04/16 01:45:09;;;;;;;29.27;17.13;;;8.70;99.90;;;;;;5055314;28;20043;-71
2022/04/16 01:47:36;;;;;;;33.00;17.85;;;8.30;99.90;;;;;;5055387;28;20119;-71
2022/04/16 01:50:07;;;;;;;24.90;15.50;;;8.50;99.90;;;;;;5037644;28;20044;-71
2022/04/16 01:52:33;;;;;;;24.20;15.43;;;;;;;;;;5055121;28;20501;-71
2022/04/16 01:54:59;;;;;;;22.85;15.70;;;8.50;99.90;;;;;;5055073;28;20032;-71
2022/04/16 01:57:25;;;;;;;24.35;15.13;;;;;;;;;;5054798;28;20536;-71
2022/04/16 01:59:50;;;;;;;23.25;14.35;;;8.20;99.90;;;;;;5071772;28;20040;-71
2022/04/16 02:02:16;;;;;;;21.05;14.95;;;8.20;99.90;;;;;;5072545;28;20032;-71
2022/04/16 02:04:43;;;;;;;25.30;15.30;;;;;;;;;;5054519;28;20080;-71
2022/04/16 02:07:09;;;;;;;23.30;15.43;;;;;;;;;;5054778;28;20037;-71
2022/04/16 02:09:35;;;;;;;24.88;16.33;;;;;;;;;;5053512;28;20041;-71
2022/04/16 02:12:01;;;;;;;21.80;15.57;;;;;;;;;;5072385;28;20037;-71
2022/04/16 02:14:26;;;;;;;27.40;16.75;;;8.20;99.90;;;;;;5054358;28;20040;-72
2022/04/16 02:16:53;;;;;;;26.35;16.85;;;8.10;99.90;;;;;;5054433;28;20045;-71
2022/04/16 02:19:19;;;;;;;26.23;17.90;;;8.20;99.90;;;;;;5053418;28;20186;-70
2022/04/16 02:21:44;;;;;;;26.13;16.55;;;8.20;99.90;;;;;;5072374;28;20119;-71
2022/04/16 02:24:13;;;;;;;26.27;18.05;;;8.10;99.90;;;;;;5054254;28;20037;-71
2022/04/16 02:26:41;;;;;;;27.08;16.52;;;7.90;99.90;;;;;;5054301;28;20494;-71
2022/04/16 02:29:08;;;;;;;23.58;15.45;;;8.20;99.90;;;;;;5053658;28;20036;-69
2022/04/16 02:31:37;;;;;;;26.92;17.17;;;8.30;99.90;;;;;;5054366;28;20044;-71
2022/04/16 02:34:05;;;;;;;24.85;16.27;;;8.10;99.90;;;;;;5072023;28;20494;-70
2022/04/16 02:36:31;;;;;;;28.77;18.08;;;7.90;99.90;;;;;;5072076;28;20052;-71
2022/04/16 02:38:57;;;;;;;25.83;16.55;;;7.80;99.90;;;;;;5053821;28;20040;-70
2022/04/16 02:41:23;;;;;;;29.98;18.17;;;7.90;99.90;;;;;;5053581;28;20109;-71
2022/04/16 02:43:49;;;;;;;33.10;18.60;;;7.70;99.90;;;;;;5054160;28;20490;-71
2022/04/16 02:49:00;;;;;;;33.00;18.90;;;7.90;99.90;;;;;;5053313;28;20477;-71
2022/04/16 02:51:26;;;;;;;29.88;17.67;;;7.70;99.90;;;;;;5053577;28;20047;-71
2022/04/16 02:53:52;;;;;;;28.88;17.90;;;;;;;;;;5071678;28;20421;-71
2022/04/16 02:56:18;;;;;;;30.92;17.52;;;7.80;99.90;;;;;;5037043;28;20127;-71
2022/04/16 02:58:44;;;;;;;27.55;17.02;;;7.70;99.90;;;;;;5071816;28;20486;-71
2022/04/16 03:01:09;;;;;;;26.92;17.33;;;7.70;99.90;;;;;;5053282;28;20076;-71
2022/04/16 03:03:35;;;;;;;34.08;20.02;;;;;;;;;;5053840;28;20036;-71
2022/04/16 03:06:01;;;;;;;27.17;17.23;;;7.70;99.90;;;;;;5037152;28;20541;-71
2022/04/16 03:08:26;;;;;;;29.27;18.67;;;7.60;99.90;;;;;;5053614;28;20093;-71
2022/04/16 03:10:54;;;;;;;26.77;17.17;;;;;;;;;;5070676;28;20079;-71
2022/04/16 03:13:20;;;;;;;26.70;16.60;;;;;;;;;;5037097;28;20045;-71
2022/04/16 03:18:30;;;;;;;32.25;19.85;;;;;;;;;;5071649;28;20460;-71
2022/04/16 03:20:57;;;;;;;31.05;19.17;;;7.40;99.90;;;;;;5052575;28;20140;-71
2022/04/16 03:23:23;;;;;;;28.02;18.92;;;7.60;99.90;;;;;;5053312;28;20040;-71
2022/04/16 03:25:49;;;;;;;30.73;18.90;;;;;;;;;;5071629;28;20043;-71
2022/04/16 03:28:15;;;;;;;27.52;18.33;;;7.60;99.90;;;;;;5052284;28;20040;-72
2022/04/16 03:30:42;;;;;;;31.90;20.40;;;;;;;;;;5070553;28;20483;-71
2022/04/16 03:33:08;;;;;;;32.75;20.08;;;;;;;;;;5053519;28;20040;-71
2022/04/16 03:35:35;;;;;;;37.13;21.17;;;7.30;99.90;;;;;;5071341;28;20037;-70
2022/04/16 03:38:00;;;;;;;32.00;19.60;;;;;;;;;;5053642;28;20406;-69
2022/04/16 03:40:26;;;;;;;28.02;19.77;;;;;;;;;;5036320;28;20040;-71
2022/04/16 03:42:58;;;;;;;27.58;18.23;;;7.20;99.90;;;;;;5071328;28;20486;-70
2022/04/16 03:45:26;;;;;;;30.98;19.00;;;7.50;99.90;;;;;;5071416;28;20076;-71
2022/04/16 03:47:54;;;;;;;27.08;18.08;;;7.40;99.90;;;;;;5071229;28;20048;-71
2022/04/16 03:50:21;;;;;;;26.48;17.33;;;7.20;99.90;;;;;;5052333;28;20044;-72
2022/04/16 03:52:48;;;;;;;28.25;18.45;;;7.30;99.90;;;;;;5071555;28;20036;-71
2022/04/16 04:00:44;;;;;;;28.33;18.25;;;7.30;99.90;;;;;;5052621;28;20410;-71
2022/04/16 04:03:11;;;;;;;26.10;18.63;;;7.40;99.90;;;;;;5053269;28;20047;-71
2022/04/16 04:05:37;;;;;;;28.70;17.67;;;;;;;;;;5053061;28;20046;-71
2022/04/16 04:08:05;;;;;;;34.30;18.83;;;7.50;99.90;;;;;;5072125;28;20040;-70
2022/04/16 04:10:31;;;;;;;25.70;17.70;;;;;;;;;;5073929;28;20075;-72
2022/04/16 04:12:57;;;;;;;30.90;20.13;;;;;;;;;;5074610;28;20072;-71
2022/04/16 04:15:23;;;;;;;28.13;17.85;;;7.60;99.90;;;;;;5074613;28;20041;-71
2022/04/16 04:17:50;;;;;;;29.35;18.38;;;;;;;;;;5056913;28;20094;-71
2022/04/16 04:20:16;;;;;;;29.30;18.77;;;7.50;99.90;;;;;;5055849;28;20098;-71
2022/04/16 04:22:42;;;;;;;29.30;18.95;;;;;;;;;;5056447;28;20044;-72
2022/04/16 04:25:08;;;;;;;31.77;18.30;;;;;;;;;;5074644;28;20040;-71
2022/04/16 04:27:34;;;;;;;33.15;20.50;;;;;;;;;;5039926;28;20041;-71
2022/04/16 04:30:03;;;;;;;29.90;20.48;;;;;;;;;;5055871;28;20616;-72
2022/04/16 04:32:29;;;;;;;31.98;19.55;;;;;;;;;;5074318;28;20508;-71
2022/04/16 04:34:55;;;;;;;27.85;18.90;;;;;;;;;;5056542;28;20040;-71
2022/04/16 04:37:21;;;;;;;30.17;19.92;;;8.00;99.90;;;;;;5056401;28;20037;-71
2022/04/16 04:39:47;;;;;;;28.88;19.40;;;;;;;;;;5055411;28;20047;-71
2022/04/16 04:42:13;;;;;;;29.25;19.30;;;;;;;;;;5074106;28;20055;-72
2022/04/16 04:44:38;;;;;;;33.63;20.67;;;8.00;99.90;;;;;;5056093;28;20098;-71
2022/04/16 04:47:04;;;;;;;30.48;18.42;;;8.00;99.90;;;;;;5074047;28;20041;-71
2022/04/16 04:49:29;;;;;;;31.65;19.90;;;8.00;99.90;;;;;;5055173;28;20036;-71
2022/04/16 04:51:55;;;;;;;31.42;20.33;;;;;;;;;;5073685;28;20039;-72
2022/04/16 04:54:21;;;;;;;29.80;19.92;;;8.10;99.90;;;;;;5056003;28;20047;-71
2022/04/16 04:56:47;;;;;;;27.95;18.73;;;8.10;99.90;;;;;;5073923;28;20040;-71
2022/04/16 04:59:13;;;;;;;30.73;20.00;;;8.10;99.90;;;;;;5055188;28;20155;-70
2022/04/16 05:01:39;;;;;;;29.55;19.65;;;;;;;;;;5039532;28;20534;-71
2022/04/16 05:04:04;;;;;;;29.77;19.50;;;8.20;99.90;;;;;;5073830;28;20045;-71
2022/04/16 05:06:30;;;;;;;32.22;21.20;;;8.30;99.90;;;;;;5055797;28;20547;-71
2022/04/16 05:08:56;;;;;;;30.52;19.58;;;;;;;;;;5054858;28;20043;-71
2022/04/16 05:11:22;;;;;;;32.22;20.88;;;;;;;;;;5055374;28;20045;-71
2022/04/16 05:13:48;;;;;;;31.90;21.13;;;;;;;;;;5055575;28;20059;-72
2022/04/16 05:16:15;;;;;;;31.55;20.63;;;8.40;99.90;;;;;;5055853;28;20445;-71
2022/04/16 05:18:41;;;;;;;35.83;21.52;;;8.50;99.90;;;;;;5073118;28;20383;-71
2022/04/16 05:21:07;;;;;;;32.88;21.25;;;8.40;99.90;;;;;;5072834;28;20043;-71
2022/04/16 05:23:33;;;;;;;33.92;21.50;;;8.60;99.90;;;;;;5055458;28;20409;-71
2022/04/16 05:25:59;;;;;;;40.22;23.73;;;;;;;;;;5089300;28;20037;-71
2022/04/16 05:28:25;;;;;;;39.33;23.90;;;;;;;;;;5088059;28;20036;-72
2022/04/16 05:30:58;;;;;;;37.25;23.27;;;;;;;;;;5070852;28;20032;-71
2022/04/16 05:36:09;;;;;;;34.30;23.52;;;8.60;99.90;;;;;;5057584;28;20127;-71
2022/04/16 05:38:35;;;;;;;47.45;24.27;;;8.50;99.90;;;;;;5055296;28;20079;-70
2022/04/16 05:41:01;;;;;;;38.10;23.90;;;;;;;;;;5037627;28;20463;-71
2022/04/16 05:43:27;;;;;;;38.70;23.70;;;8.60;99.90;;;;;;5055217;28;20041;-69
2022/04/16 05:45:52;;;;;;;39.00;24.75;;;8.60;99.90;;;;;;5055297;28;20041;-71
2022/04/16 05:48:18;;;;;;;40.30;25.58;;;8.70;99.90;;;;;;5055089;28;20036;-71
2022/04/16 05:50:44;;;;;;;37.55;24.63;;;;;;;;;;5054093;28;20043;-71
2022/04/16 05:53:11;;;;;;;40.58;25.70;;;8.70;99.90;;;;;;5055175;28;20044;-71
2022/04/16 05:55:45;;;;;;;36.85;25.00;;;8.90;99.90;;;;;;5055174;28;20052;-71
2022/04/16 05:58:11;;;;;;;38.72;24.85;;;8.80;99.90;;;;;;5038318;28;20040;-71
2022/04/16 06:00:37;;;;;;;40.22;24.98;;;;;;;;;;5071705;28;20414;-71
2022/04/16 06:03:04;;;;;;;40.38;25.50;;;8.80;99.90;;;;;;5054621;28;20047;-72
2022/04/16 06:05:33;;;;;;;36.65;25.23;;;;;;;;;;5072493;28;20120;-71
2022/04/16 06:08:00;;;;;;;37.60;24.90;;;;;;;;;;5072372;28;20047;-71
2022/04/16 06:10:26;;;;;;;36.92;23.02;;;;;;;;;;5036927;28;20044;-71
2022/04/16 06:12:52;;;;;;;36.80;24.35;;;8.80;99.90;;;;;;5072666;28;20048;-71
2022/04/16 06:15:18;;;;;;;33.13;22.90;;;;;;;;;;5054650;28;20032;-71
2022/04/16 06:17:43;;;;;;;35.65;22.00;;;8.70;99.90;;;;;;5072386;28;20072;-71
2022/04/16 06:20:09;;;;;;;33.25;21.77;;;8.80;99.90;;;;;;5053415;28;20071;-71
2022/04/16 06:22:35;;;;;;;30.17;19.77;;;8.70;99.90;;;;;;5072013;28;20486;-71
2022/04/16 06:25:01;;;;;;;29.08;18.35;;;;;;;;;;5037498;28;20038;-71
2022/04/16 06:27:27;;;;;;;27.33;16.58;;;8.80;99.90;;;;;;5072330;28;20040;-71
2022/04/16 06:29:53;;;;;;;24.85;15.93;;;8.70;99.90;;;;;;5071074;28;20032;-71
2022/04/16 06:32:18;;;;;;;26.65;15.23;;;8.70;99.90;;;;;;5053589;28;20040;-71
2022/04/16 06:34:44;;;;;;;23.67;16.05;;;8.80;99.90;;;;;;5037497;28;20040;-71
2022/04/16 06:37:09;;;;;;;24.35;15.30;;;8.70;99.90;;;;;;5038015;28;20082;-71
2022/04/16 06:39:35;;;;;;;27.42;16.50;;;8.80;99.90;;;;;;5071327;28;20040;-71
2022/04/16 06:42:01;;;;;;;21.40;13.65;;;;;;;;;;5053903;28;20490;-71
2022/04/16 06:44:27;;;;;;;23.80;14.55;;;8.70;99.90;;;;;;5053892;28;20041;-71
2022/04/16 06:46:54;;;;;;;27.27;14.52;;;8.80;99.90;;;;;;5071886;28;20037;-71
2022/04/16 06:49:20;;;;;;;22.73;12.77;;;8.80;99.90;;;;;;5070942;28;20036;-71
2022/04/16 06:51:46;;;;;;;25.17;14.07;;;8.80;99.90;;;;;;5053663;28;20047;-71
2022/04/16 06:54:12;;;;;;;21.17;13.75;;;;;;;;;;5053984;28;20036;-72
2022/04/16 06:56:38;;;;;;;24.50;14.32;;;;;;;;;;5053929;28;20044;-72
2022/04/16 06:59:04;;;;;;;20.33;12.98;;;;;;;;;;5053232;28;20569;-70
2022/04/16 07:01:30;;;;;;;18.67;12.90;;;;;;;;;;5053381;28;20045;-72
2022/04/16 07:03:56;;;;;;;22.25;12.70;;;;;;;;;;5053703;28;20041;-73
2022/04/16 07:06:23;;;;;;;17.80;11.82;;;9.00;99.90;;;;;;5071722;28;20577;-72
2022/04/16 07:08:49;;;;;;;21.80;12.23;;;;;;;;;;5072048;28;20037;-72
2022/04/16 07:11:15;;;;;;;24.20;13.10;;;;;;;;;;5060011;22;20409;-70
2022/04/16 07:13:41;;;;;;;22.58;12.40;;;;;;;;;;5051216;28;20215;-69
2022/04/16 07:16:06;;;;;;;20.17;12.27;;;9.40;99.90;;;;;;5033330;28;20410;-70
2022/04/16 07:18:32;;;;;;;17.25;11.75;;;;;;;;;;5033241;28;20460;-69
2022/04/16 07:20:58;;;;;;;18.35;11.73;;;;;;;;;;5050288;28;20041;-70
2022/04/16 07:23:24;;;;;;;20.05;10.93;;;;;;;;;;5033325;28;20415;-70
2022/04/16 07:25:50;;;;;;;19.17;11.63;;;;;;;;;;5033275;28;20033;-70
2022/04/16 07:28:21;;;;;;;19.73;11.80;;;;;;;;;;5018672;28;20033;-70
2022/04/16 07:30:51;;;;;;;17.10;11.05;;;9.80;99.90;;;;;;5040963;28;20044;-71
2022/04/16 07:33:17;;;;;;;19.17;11.45;;;;;;;;;;5043507;28;20054;-71
2022/04/16 07:35:43;;;;;;;16.30;10.88;;;9.70;99.90;;;;;;5041634;28;20045;-70
2022/04/16 07:38:09;;;;;;;17.70;10.30;;;10.00;99.90;;;;;;5024604;28;20063;-71
2022/04/16 07:40:35;;;;;;;20.73;10.52;;;;;;;;;;5041893;28;20118;-71
2022/04/16 07:43:01;;;;;;;20.17;12.35;;;10.00;99.90;;;;;;5044083;28;20491;-71
2022/04/16 07:45:29;;;;;;;17.85;9.48;;;10.10;99.90;;;;;;5063445;28;20140;-70
2022/04/16 07:47:55;;;;;;;18.90;11.00;;;10.10;99.90;;;;;;5064551;28;20037;-70
2022/04/16 07:50:21;;;;;;;17.00;11.38;;;;;;;;;;5044088;28;20450;-72
2022/04/16 07:52:47;;;;;;;19.70;11.05;;;;;;;;;;5045503;28;20127;-71
2022/04/16 07:55:14;;;;;;;16.80;10.18;;;;;;;;;;5044045;28;20454;-70
2022/04/16 07:57:40;;;;;;;18.23;9.70;;;;;;;;;;5037998;28;20045;-69
2022/04/16 08:00:07;;;;;;;16.55;10.02;;;;;;;;;;5053733;28;20079;-69
2022/04/16 08:02:33;;;;;;;18.52;10.88;;;;;;;;;;5036753;28;20040;-69
2022/04/16 08:04:58;;;;;;;18.40;9.75;;;10.80;99.90;;;;;;5036643;28;20045;-68
2022/04/16 08:07:24;;;;;;;15.88;10.13;;;10.70;99.90;;;;;;5054558;28;20037;-69
2022/04/16 08:09:50;;;;;;;17.77;9.55;;;;;;;;;;5053334;28;20072;-69
2022/04/16 08:12:16;;;;;;;15.93;9.52;;;;;;;;;;5052809;28;20044;-70
2022/04/16 08:14:42;;;;;;;15.23;9.77;;;;;;;;;;5036446;28;20045;-70
2022/04/16 08:17:08;;;;;;;20.35;9.70;;;;;;;;;;5036186;28;20123;-72
2022/04/16 08:19:35;;;;;;;17.35;9.95;;;;;;;;;;5053151;28;20272;-72
2022/04/16 08:22:03;;;;;;;17.45;10.15;;;;;;;;;;5016664;28;20044;-70
2022/04/16 08:26:57;;;;;;;15.20;9.13;;;11.20;99.90;;;;;;5040534;28;20056;-71
2022/04/16 08:29:23;;;;;;;14.98;8.73;;;;;;;;;;5034264;28;20090;-69
2022/04/16 08:31:49;;;;;;;14.48;9.10;;;11.20;99.90;;;;;;5060089;28;20489;-71
2022/04/16 08:34:16;;;;;;;15.70;9.32;;;;;;;;;;5051709;28;20194;-71
2022/04/16 08:36:42;;;;;;;14.63;8.25;;;;;;;;;;5052265;28;20079;-71
2022/04/16 08:39:08;;;;;;;16.88;9.07;;;;;;;;;;5051272;28;20498;-70
2022/04/16 08:41:34;;;;;;;12.88;7.95;;;;;;;;;;5048458;28;20043;-71
2022/04/16 08:44:00;;;;;;;13.25;8.10;;;;;;;;;;5037866;28;20049;-69
2022/04/16 08:46:31;;;;;;;14.05;8.32;;;11.80;99.90;;;;;;5043862;28;20482;-71
2022/04/16 08:49:01;;;;;;;12.85;8.30;;;11.70;99.90;;;;;;5052306;28;20320;-70
2022/04/16 08:51:27;;;;;;;11.60;7.88;;;;;;;;;;5053232;28;20045;-71
2022/04/16 08:53:53;;;;;;;10.05;7.25;;;;;;;;;;5035059;28;20454;-71
2022/04/16 08:56:19;;;;;;;11.35;6.70;;;12.10;99.90;;;;;;5035789;28;20499;-71
2022/04/16 08:58:45;;;;;;;10.55;7.13;;;;;;;;;;5034748;28;20128;-71
2022/04/16 09:01:11;;;;;;;9.65;7.15;;;12.10;99.90;;;;;;5035042;28;20128;-71
2022/04/16 09:03:38;;;;;;;11.27;7.45;;;12.30;99.90;;;;;;5035495;28;20037;-68
2022/04/16 09:06:05;;;;;;;12.30;7.18;;;12.40;99.90;;;;;;5019359;28;20395;-68
2022/04/16 09:08:33;;;;;;;10.02;6.63;;;12.20;99.90;;;;;;5053637;28;20131;-69
2022/04/16 09:11:10;;;;;;;10.85;7.03;;;12.30;99.90;;;;;;5034835;28;20391;-69
2022/04/16 09:13:39;;;;;;;11.90;6.22;;;12.40;99.90;;;;;;5035774;28;20044;-69
2022/04/16 09:16:06;;;;;;;10.70;6.35;;;12.20;99.90;;;;;;5053514;28;20044;-71
2022/04/16 09:18:44;;;;;;;9.80;6.03;;;12.50;99.90;;;;;;5035315;28;20072;-72
2022/04/16 09:21:12;;;;;;;11.13;5.57;;;12.50;99.90;;;;;;5034513;28;20037;-71
2022/04/16 09:23:43;;;;;;;8.13;5.88;;;12.40;99.90;;;;;;5053035;28;20076;-71
2022/04/16 09:26:09;;;;;;;10.15;5.57;;;12.30;99.90;;;;;;5035384;28;20064;-71
2022/04/16 09:28:44;;;;;;;10.55;5.18;;;12.60;99.90;;;;;;5018770;28;20428;-71
2022/04/16 09:31:11;;;;;;;7.70;4.55;;;;;;;;;;5034345;28;20037;-71
2022/04/16 09:33:37;;;;;;;7.90;4.88;;;12.70;99.90;;;;;;5035167;28;20128;-71
2022/04/16 09:36:03;;;;;;;9.52;5.85;;;12.80;99.90;;;;;;5035430;28;20041;-71
2022/04/16 09:38:35;;;;;;;7.78;4.93;;;12.80;99.90;;;;;;5053332;28;20036;-72
2022/04/16 09:41:08;;;;;;;6.38;3.65;;;13.00;99.90;;;;;;5051948;28;20442;-70
2022/04/16 09:43:38;;;;;;;6.07;3.72;;;12.70;99.90;;;;;;5018289;28;20163;-70
2022/04/16 09:46:13;;;;;;;6.05;4.35;;;13.20;99.90;;;;;;5052829;28;20079;-69
2022/04/16 09:48:39;;;;;;;7.10;3.60;;;13.20;99.90;;;;;;5034986;28;20483;-69
2022/04/16 09:51:05;;;;;;;4.75;3.38;;;13.10;99.90;;;;;;5033524;28;20040;-69
2022/04/16 09:53:31;;;;;;;5.10;3.10;;;13.30;99.90;;;;;;5052549;28;20115;-69
2022/04/16 09:55:58;;;;;;;6.05;3.13;;;13.30;99.90;;;;;;5052713;28;20079;-70
2022/04/16 09:58:34;;;;;;;4.82;3.05;;;13.40;99.90;;;;;;5050657;28;20041;-69
2022/04/16 10:01:01;;;;;;;3.63;2.47;;;13.30;99.90;;;;;;5051628;28;20036;-69
2022/04/16 10:03:29;;;;;;;3.95;2.60;;;;;;;;;;5034375;28;20072;-69
2022/04/16 10:05:57;;;;;;;4.05;2.55;;;13.50;99.90;;;;;;5051578;28;20053;-70
2022/04/16 10:08:24;;;;;;;5.70;2.80;;;13.50;99.90;;;;;;5053145;28;20449;-70
2022/04/16 10:10:54;;;;;;;4.35;2.60;;;;;;;;;;5051451;28;20037;-70
2022/04/16 10:13:21;;;;;;;3.58;2.60;;;13.80;99.90;;;;;;5034190;28;20052;-70
2022/04/16 10:16:04;;;;;;;3.70;2.35;;;13.80;99.90;;;;;;5017725;28;20518;-70
2022/04/16 10:18:33;;;;;;;4.65;2.70;;;14.00;99.90;;;;;;5034922;28;20518;-70
2022/04/16 10:20:59;;;;;;;3.35;2.25;;;14.20;99.90;;;;;;5033595;28;20079;-70
2022/04/16 10:23:29;;;;;;;2.75;2.13;;;14.20;99.00;;;;;;5051931;28;20073;-70
2022/04/16 10:26:06;;;;;;;4.50;2.50;;;14.20;99.80;;;;;;5034051;28;20048;-71
2022/04/16 10:28:55;;;;;;;4.72;2.42;;;14.10;97.80;;;;;;5051822;28;20041;-70
2022/04/16 10:31:25;;;;;;;3.95;2.67;;;14.20;99.30;;;;;;5050922;28;20044;-70
2022/04/16 10:34:11;;;;;;;4.43;2.80;;;14.20;98.50;;;;;;5019249;28;20044;-70
2022/04/16 10:36:52;;;;;;;3.67;2.00;;;16.40;98.60;;;;;;5039275;28;20403;-70
2022/04/16 10:39:27;;;;;;;5.65;1.95;;;14.30;98.20;;;;;;5022420;28;20044;-70
2022/04/16 10:41:58;;;;;;;3.58;2.05;;;14.30;99.20;;;;;;5059296;28;20517;-70
2022/04/16 10:44:24;;;;;;;2.17;1.95;;;14.30;98.30;;;;;;5042274;28;20036;-69
2022/04/16 10:46:52;;;;;;;4.30;1.58;;;14.20;97.90;;;;;;5043568;28;20055;-70
2022/04/16 10:49:19;;;;;;;3.40;1.88;;;14.70;98.30;;;;;;5058629;28;20037;-70
2022/04/16 10:51:46;;;;;;;3.17;1.90;;;14.90;97.30;;;;;;5042017;28;20032;-70
2022/04/16 10:54:14;;;;;;;4.97;2.10;;;14.60;98.50;;;;;;5025396;28;20340;-70
2022/04/16 10:56:44;;;;;;;2.60;1.90;;;14.40;96.90;;;;;;5042570;28;20509;-70
2022/04/16 10:59:11;;;;;;;5.00;2.35;;;;;;;;;;5060505;28;20509;-70
2022/04/16 11:01:37;;;;;;;4.38;2.30;;;14.60;97.90;;;;;;5041519;28;20048;-70
2022/04/16 11:04:15;;;;;;;3.83;2.25;;;14.60;98.50;;;;;;5059835;28;20090;-70
2022/04/16 11:06:45;;;;;;;3.35;2.05;;;14.70;98.80;;;;;;5052863;28;20029;-70
2022/04/16 11:09:13;;;;;;;3.53;1.90;;;14.70;97.50;;;;;;5015839;28;20040;-70
2022/04/16 11:11:41;;;;;;;2.38;1.80;;;14.80;97.70;;;;;;5050477;28;20033;-67
2022/04/16 11:14:08;;;;;;;2.13;1.70;;;14.90;97.70;;;;;;5059353;28;20040;-70
2022/04/16 11:16:47;;;;;;;3.40;2.60;;;14.80;96.80;;;;;;5042984;28;20048;-70
2022/04/16 11:19:15;;;;;;;3.15;2.65;;;14.90;97.00;;;;;;5044744;28;20041;-66
2022/04/16 11:21:42;;;;;;;3.17;1.65;;;15.10;97.90;;;;;;5041685;28;20045;-70
2022/04/16 11:24:09;;;;;;;2.20;1.67;;;14.90;98.10;;;;;;5058345;28;20059;-70
2022/04/16 11:34:55;;;;;;;2.97;2.08;;;15.60;98.40;;;;;;5045895;28;20565;-70
2022/04/16 11:37:21;;;;;;;3.80;1.95;;;15.50;97.40;;;;;;5043222;28;20709;-70
2022/04/16 11:39:57;;;;;;;2.80;1.92;;;15.60;97.40;;;;;;5044513;28;20043;-70
2022/04/16 11:42:24;;;;;;;2.50;1.55;;;15.30;96.60;;;;;;5039633;28;20043;-71
2022/04/16 11:44:52;;;;;;;2.05;1.45;;;15.40;96.70;;;;;;5036877;28;20087;-70
2022/04/16 11:47:24;;;;;;;1.42;1.33;;;15.30;96.10;;;;;;5037360;28;20065;-71
2022/04/16 11:49:53;;;;;;;3.58;1.63;;;15.50;95.80;;;;;;5037792;28;20037;-70
2022/04/16 11:52:26;;;;;;;1.20;1.10;;;15.50;95.00;;;;;;5018648;28;20047;-69
2022/04/16 11:55:19;;;;;;;1.45;0.95;;;15.40;93.00;;;;;;5054800;28;20447;-68
2022/04/16 11:57:54;;;;;;;0.70;0.60;;;15.20;92.30;;;;;;5019240;28;20041;-69
2022/04/16 12:00:21;;;;;;;1.98;0.98;;;15.60;92.60;;;;;;5019783;28;20040;-70
2022/04/16 12:02:47;;;;;;;2.35;0.88;;;15.20;92.20;;;;;;5020423;28;20507;-70
2022/04/16 12:05:15;;;;;;;1.33;1.23;;;15.30;92.00;;;;;;5036632;28;20040;-69
2022/04/16 12:07:46;;;;;;;1.55;0.98;;;15.50;93.30;;;;;;5020992;28;20029;-67
2022/04/16 12:10:14;;;;;;;1.63;0.85;;;15.60;92.80;;;;;;5036620;28;20051;-69
2022/04/16 12:12:52;;;;;;;1.17;0.85;;;15.60;91.40;;;;;;5036610;28;20128;-68
2022/04/16 12:15:29;;;;;;;2.72;1.23;;;15.70;92.50;;;;;;5036460;28;20036;-68
2022/04/16 12:17:57;;;;;;;3.47;0.95;;;15.80;92.00;;;;;;5054335;28;20108;-68
2022/04/16 12:20:25;;;;;;;2.60;0.82;;;15.80;92.50;;;;;;5035109;28;20040;-68
2022/04/16 12:22:58;;;;;;;1.42;1.08;;;15.80;91.70;;;;;;5018769;28;20037;-68
2022/04/16 12:25:25;;;;;;;2.42;0.85;;;15.80;91.20;;;;;;5018918;28;20082;-68
2022/04/16 12:27:55;;;;;;;1.30;0.73;;;15.70;91.00;;;;;;5055324;28;20321;-68
2022/04/16 12:30:28;;;;;;;1.58;0.73;;;15.90;91.90;;;;;;5043629;28;20432;-65
2022/04/16 12:33:14;;;;;;;2.45;0.80;;;15.80;91.80;;;;;;5060665;28;20064;-67
2022/04/16 12:35:44;;;;;;;2.70;0.90;;;15.80;91.70;;;;;;5035433;28;20059;-64
2022/04/16 12:38:15;;;;;;;0.80;0.75;;;16.10;92.50;;;;;;5053875;28;20043;-68
2022/04/16 12:40:41;;;;;;;2.65;0.73;;;;;;;;;;5053711;28;20040;-69
2022/04/16 12:43:07;;;;;;;2.20;0.90;;;16.00;91.20;;;;;;5036465;28;20407;-72
2022/04/16 12:45:32;;;;;;;1.10;0.80;;;15.90;91.50;;;;;;5036085;28;20036;-72
2022/04/16 12:47:58;;;;;;;1.17;0.63;;;16.10;90.40;;;;;;5035756;28;20068;-69
2022/04/16 12:50:26;;;;;;;1.13;0.70;;;16.30;90.00;;;;;;5034904;28;20033;-70
2022/04/16 12:52:52;;;;;;;3.03;0.70;;;16.10;90.30;;;;;;5035634;28;20123;-70
2022/04/16 12:55:17;;;;;;;2.08;0.70;;;16.20;89.50;;;;;;5053718;28;20132;-69
2022/04/16 12:57:44;;;;;;;3.45;0.75;;;16.10;89.60;;;;;;5035778;28;20078;-70
2022/04/16 13:00:11;;;;;;;1.88;0.70;;;16.00;90.50;;;;;;5035186;28;20458;-70
2022/04/16 13:02:42;;;;;;;2.17;1.05;;;15.70;90.60;;;;;;5035699;28;20055;-70
2022/04/16 13:05:15;;;;;;;1.63;0.95;;;15.70;90.80;;;;;;5035451;28;20094;-69
2022/04/16 13:07:41;;;;;;;2.40;1.00;;;16.00;90.00;;;;;;5053727;28;20048;-69
2022/04/16 13:10:07;;;;;;;1.75;0.98;;;15.90;88.90;;;;;;5051958;22;20037;-71
2022/04/16 13:12:34;;;;;;;1.13;0.85;;;16.00;90.10;;;;;;5054954;28;20060;-72
2022/04/16 13:15:00;;;;;;;1.73;0.90;;;16.10;90.30;;;;;;5056072;28;20036;-72
2022/04/16 13:17:26;;;;;;;2.58;1.00;;;16.10;90.00;;;;;;5074570;28;20044;-72
2022/04/16 13:19:52;;;;;;;1.20;0.80;;;16.10;89.40;;;;;;5074707;28;20459;-72
2022/04/16 13:22:17;;;;;;;1.73;0.70;;;16.30;90.10;;;;;;5073921;28;20456;-72
2022/04/16 13:24:43;;;;;;;0.55;0.52;;;16.10;88.00;;;;;;5073467;28;20068;-72
2022/04/16 13:27:11;;;;;;;3.55;0.60;;;;;;;;;;5055719;28;20048;-73
2022/04/16 13:29:37;;;;;;;2.15;1.08;;;16.50;89.30;;;;;;5073039;28;20116;-72
2022/04/16 13:32:03;;;;;;;1.70;0.77;;;;;;;;;;5054989;28;20071;-73
2022/04/16 13:34:29;;;;;;;2.88;0.75;;;16.60;90.60;;;;;;5072801;28;20040;-73
2022/04/16 13:36:55;;;;;;;1.90;0.82;;;16.50;90.40;;;;;;5037922;28;20044;-71